createdAt,value
2019-04-26T00:02:04.482Z,97882.19
2019-04-26T00:04:38.234Z,97886.41
2019-04-26T00:07:10.690Z,97886.83
2019-04-26T00:09:43.079Z,97893.56
2019-04-26T00:12:36.316Z,97893.23
2019-04-26T00:15:27.113Z,97896.84
2019-04-26T00:18:01.158Z,97896.90
2019-04-26T00:20:35.295Z,97899.77
2019-04-26T00:23:07.099Z,97898.69
2019-04-26T00:25:38.902Z,97899.53
2019-04-26T00:28:11.710Z,97901.22
2019-04-26T00:30:44.201Z,97899.07
2019-04-26T00:33:15.987Z,97892.67
2019-04-26T00:35:48.912Z,97888.35
2019-04-26T00:38:22.409Z,97885.43
2019-04-26T00:40:55.380Z,97888.39
2019-04-26T00:43:27.750Z,97891.03
2019-04-26T00:46:02.253Z,97895.49
2019-04-26T00:48:35.575Z,97894.59
2019-04-26T00:51:09.925Z,97882.67
2019-04-26T00:53:44.601Z,97888.67
2019-04-26T00:56:18.050Z,97883.88
2019-04-26T00:58:50.190Z,97889.78
2019-04-26T01:01:24.933Z,97887.56
2019-04-26T01:03:56.974Z,97888.38
2019-04-26T01:06:34.082Z,97888.38
2019-04-26T01:09:08.106Z,97883.88
2019-04-26T01:11:41.283Z,97881.09
2019-04-26T01:14:13.963Z,97877.47
2019-04-26T01:16:45.604Z,97871.23
2019-04-26T01:19:20.276Z,97868.56
2019-04-26T01:21:55.124Z,97866.68
2019-04-26T01:24:30.253Z,97866.32
2019-04-26T01:27:05.515Z,97872.80
2019-04-26T01:29:39.220Z,97867.58
2019-04-26T01:32:13.226Z,97866.05
2019-04-26T01:34:47.250Z,97861.40
2019-04-26T01:37:20.321Z,97858.64
2019-04-26T01:39:58.828Z,97854.08
2019-04-26T01:42:42.822Z,97845.55
2019-04-26T01:45:23.657Z,97848.05
2019-04-26T01:47:58.341Z,97846.72
2019-04-26T01:50:31.707Z,97845.49
2019-04-26T01:53:07.436Z,97836.47
2019-04-26T01:55:39.379Z,97838.60
2019-04-26T01:58:12.051Z,97847.27
2019-04-26T02:01:01.005Z,97835.43
2019-04-26T02:03:33.962Z,97835.81
2019-04-26T02:06:06.032Z,97836.60
2019-04-26T02:08:37.902Z,97828.22
2019-04-26T02:11:10.021Z,97828.45
2019-04-26T02:13:41.865Z,97820.97
2019-04-26T02:16:13.642Z,97817.73
2019-04-26T02:18:46.979Z,97826.83
2019-04-26T02:21:29.807Z,97821.56
2019-04-26T02:24:07.224Z,97815.91
2019-04-26T02:26:41.428Z,97813.11
2019-04-26T02:29:17.626Z,97819.50
2019-04-26T02:31:53.137Z,97818.95
2019-04-26T02:34:29.228Z,97818.47
2019-04-26T02:37:02.376Z,97817.39
2019-04-26T02:39:40.259Z,97818.32
2019-04-26T02:42:40.570Z,97822.89
2019-04-26T02:45:45.046Z,97815.41
2019-04-26T02:48:40.741Z,97813.23
2019-04-26T02:51:17.764Z,97813.78
2019-04-26T02:54:03.102Z,97817.84
2019-04-26T02:56:41.385Z,97807.83
2019-04-26T02:59:38.182Z,97816.10
2019-04-26T03:02:21.741Z,97817.33
2019-04-26T03:05:00.136Z,97815.05
2019-04-26T03:08:01.169Z,97814.75
2019-04-26T03:10:40.370Z,97813.11
2019-04-26T03:13:22.567Z,97818.45
2019-04-26T03:16:33.532Z,97813.54
2019-04-26T03:19:31.456Z,97816.38
2019-04-26T03:22:27.003Z,97814.02
2019-04-26T03:25:20.784Z,97815.09
2019-04-26T03:28:24.305Z,97821.09
2019-04-26T03:31:53.426Z,97813.30
2019-04-26T03:34:27.856Z,97826.80
2019-04-26T03:38:13.634Z,97824.14
2019-04-26T03:41:12.535Z,97824.50
2019-04-26T03:44:14.513Z,97825.66
2019-04-26T03:47:00.491Z,97827.41
2019-04-26T03:50:08.658Z,97822.14
2019-04-26T03:53:19.516Z,97816.50
2019-04-26T03:56:17.529Z,97823.80
2019-04-26T03:59:20.707Z,97824.39
2019-04-26T04:02:08.010Z,97828.59
2019-04-26T04:04:53.154Z,97828.80
2019-04-26T04:07:37.128Z,97832.96
2019-04-26T04:10:07.965Z,97826.92
2019-04-26T04:12:52.904Z,97837.98
2019-04-26T04:15:31.221Z,97835.34
2019-04-26T04:18:10.443Z,97836.94
2019-04-26T04:21:34.381Z,97838.58
2019-04-26T04:24:09.332Z,97845.07
2019-04-26T04:27:11.327Z,97846.70
2019-04-26T04:29:56.013Z,97843.67
2019-04-26T04:32:42.583Z,97849.72
2019-04-26T04:35:17.123Z,97850.77
2019-04-26T04:38:08.413Z,97850.82
2019-04-26T04:41:10.316Z,97853.98
2019-04-26T04:43:50.953Z,97850.19
2019-04-26T04:47:22.260Z,97857.92
2019-04-26T04:50:06.803Z,97858.02
2019-04-26T04:52:54.816Z,97859.16
2019-04-26T04:55:39.902Z,97857.22
2019-04-26T04:58:20.513Z,97857.36
2019-04-26T05:01:46.702Z,97860.59
2019-04-26T05:04:29.197Z,97861.72
2019-04-26T05:07:30.918Z,97857.10
2019-04-26T05:10:15.791Z,97866.33
2019-04-26T05:13:05.120Z,97865.17
2019-04-26T05:16:34.203Z,97875.53
2019-04-26T05:19:57.943Z,97877.37
2019-04-26T05:23:11.768Z,97874.40
2019-04-26T05:26:32.526Z,97880.63
2019-04-26T05:29:58.153Z,97882.78
2019-04-26T05:33:00.096Z,97887.37
2019-04-26T05:36:06.279Z,97882.97
2019-04-26T05:39:10.170Z,97886.27
2019-04-26T05:42:49.745Z,97883.71
2019-04-26T05:46:27.202Z,97887.13
2019-04-26T05:49:51.705Z,97896.61
2019-04-26T05:53:04.199Z,97894.22
2019-04-26T05:56:39.267Z,97896.61
2019-04-26T05:59:44.153Z,97882.70
2019-04-26T06:02:54.687Z,97884.27
2019-04-26T06:06:05.221Z,97896.44
2019-04-26T06:09:27.486Z,97899.85
2019-04-26T06:12:16.718Z,97902.80
2019-04-26T06:15:15.816Z,97908.42
2019-04-26T06:18:22.716Z,97910.17
2019-04-26T06:21:21.133Z,97917.83
2019-04-26T06:24:23.785Z,97926.77
2019-04-26T06:27:14.087Z,97926.13
2019-04-26T06:30:03.355Z,97926.13
2019-04-26T06:33:06.420Z,97931.61
2019-04-26T06:35:43.771Z,97917.20
2019-04-26T06:38:51.173Z,97931.14
2019-04-26T06:42:05.638Z,97926.60
2019-04-26T06:45:30.891Z,97926.60
2019-04-26T06:48:17.678Z,97921.31
2019-04-26T06:50:58.387Z,97935.36
2019-04-26T06:54:15.918Z,97934.44
2019-04-26T06:57:19.772Z,97942.45
2019-04-26T07:00:28.942Z,97936.17
2019-04-26T07:03:25.351Z,97946.84
2019-04-26T07:06:00.864Z,97940.19
2019-04-26T07:08:57.569Z,97946.38
2019-04-26T07:12:22.008Z,97943.52
2019-04-26T07:15:31.227Z,97943.84
2019-04-26T07:18:36.287Z,97946.16
2019-04-26T07:21:33.286Z,97945.12
2019-04-26T07:25:08.974Z,97953.24
2019-04-26T07:28:12.468Z,97946.55
2019-04-26T07:31:09.766Z,97950.05
2019-04-26T07:34:16.856Z,97948.50
2019-04-26T07:37:31.935Z,97947.80
2019-04-26T07:40:44.980Z,97958.16
2019-04-26T07:44:08.146Z,97950.84
2019-04-26T07:47:26.324Z,97950.24
2019-04-26T07:50:33.336Z,97949.66
2019-04-26T07:53:31.484Z,97955.09
2019-04-26T07:56:49.446Z,97953.06
2019-04-26T08:00:01.198Z,97948.88
2019-04-26T08:03:01.012Z,97950.08
2019-04-26T08:05:44.264Z,97959.95
2019-04-26T08:08:20.958Z,97962.02
2019-04-26T08:11:06.186Z,97952.73
2019-04-26T08:13:45.900Z,97946.64
2019-04-26T08:16:36.074Z,97954.80
2019-04-26T08:19:12.602Z,97951.02
2019-04-26T08:21:49.074Z,97943.33
2019-04-26T08:24:28.394Z,97943.47
2019-04-26T08:27:18.860Z,97941.95
2019-04-26T08:29:46.822Z,97949.92
2019-04-26T08:32:28.228Z,97954.23
2019-04-26T08:35:21.969Z,97946.84
2019-04-26T08:37:58.679Z,97945.38
2019-04-26T08:40:32.589Z,97944.02
2019-04-26T08:43:36.934Z,97943.73
2019-04-26T08:46:28.346Z,97947.73
2019-04-26T08:49:27.473Z,97943.28
2019-04-26T08:52:13.976Z,97944.48
2019-04-26T08:54:42.672Z,97949.44
2019-04-26T08:57:16.260Z,97954.88
2019-04-26T08:59:52.185Z,97961.78
2019-04-26T09:03:10.785Z,97961.12
2019-04-26T09:05:56.314Z,97968.79
2019-04-26T09:08:31.957Z,97971.59
2019-04-26T09:11:05.945Z,97969.73
2019-04-26T09:13:41.549Z,97971.05
2019-04-26T09:16:16.145Z,97973.06
2019-04-26T09:18:54.286Z,97975.77
2019-04-26T09:21:36.401Z,97973.14
2019-04-26T09:24:24.962Z,97975.97
2019-04-26T09:27:17.211Z,97970.66
2019-04-26T09:30:06.281Z,97975.09
2019-04-26T09:33:09.199Z,97964.86
2019-04-26T09:35:41.328Z,97963.77
2019-04-26T09:38:12.999Z,97946.57
2019-04-26T09:40:44.887Z,97943.01
2019-04-26T09:43:31.763Z,97946.37
2019-04-26T09:46:25.038Z,97943.02
2019-04-26T09:49:16.919Z,97947.50
2019-04-26T09:51:48.890Z,97941.84
2019-04-26T09:54:20.661Z,97933.52
2019-04-26T09:56:52.420Z,97931.23
2019-04-26T09:59:25.437Z,97928.58
2019-04-26T10:01:59.430Z,97943.86
2019-04-26T10:04:30.773Z,97934.30
2019-04-26T10:07:03.219Z,97943.21
2019-04-26T10:09:35.970Z,97932.03
2019-04-26T10:12:35.610Z,97923.27
2019-04-26T10:15:18.265Z,97929.08
2019-04-26T10:17:51.150Z,97923.37
2019-04-26T10:20:23.052Z,97924.73
2019-04-26T10:22:54.960Z,97937.44
2019-04-26T10:25:27.119Z,97935.47
2019-04-26T10:27:59.658Z,97932.53
2019-04-26T10:30:31.627Z,97926.17
2019-04-26T10:33:03.595Z,97926.55
2019-04-26T10:35:35.369Z,97934.67
2019-04-26T10:38:09.490Z,97939.14
2019-04-26T10:40:41.257Z,97947.88
2019-04-26T10:43:13.944Z,97941.68
2019-04-26T10:45:53.504Z,97934.65
2019-04-26T10:48:19.659Z,97934.52
2019-04-26T10:50:51.437Z,97931.98
2019-04-26T10:53:31.956Z,97938.91
2019-04-26T10:56:20.189Z,97940.70
2019-04-26T10:59:31.819Z,97938.93
2019-04-26T11:02:05.526Z,97936.20
2019-04-26T11:04:41.494Z,97933.00
2019-04-26T11:07:11.807Z,97935.78
2019-04-26T11:09:44.007Z,97937.97
2019-04-26T11:12:18.098Z,97947.47
2019-04-26T11:14:53.340Z,97941.66
2019-04-26T11:17:24.669Z,97946.26
2019-04-26T11:19:56.618Z,97941.88
2019-04-26T11:22:33.125Z,97943.64
2019-04-26T11:25:02.857Z,97945.68
2019-04-26T11:27:35.873Z,97956.95
2019-04-26T11:30:12.265Z,97952.89
2019-04-26T11:32:42.070Z,97948.13
2019-04-26T11:35:13.990Z,97944.00
2019-04-26T11:37:46.548Z,97937.80
2019-04-26T11:40:20.021Z,97947.69
2019-04-26T11:42:51.997Z,97949.19
2019-04-26T11:45:24.022Z,97933.20
2019-04-26T11:47:56.701Z,97935.66
2019-04-26T11:50:28.427Z,97930.53
2019-04-26T11:53:00.076Z,97932.84
2019-04-26T11:55:31.885Z,97924.67
2019-04-26T11:58:03.990Z,97927.71
2019-04-26T12:00:41.040Z,97925.94
2019-04-26T12:03:12.677Z,97923.05
2019-04-26T12:06:01.593Z,97920.33
2019-04-26T12:08:55.265Z,97922.05
2019-04-26T12:11:34.203Z,97915.56
2019-04-26T12:14:03.781Z,97915.62
2019-04-26T12:16:46.778Z,97898.59
2019-04-26T12:19:07.819Z,97893.92
2019-04-26T12:21:40.203Z,97888.50
2019-04-26T12:24:14.911Z,97879.14
2019-04-26T12:26:46.617Z,97875.89
2019-04-26T12:29:18.310Z,97882.37
2019-04-26T12:31:50.098Z,97879.33
2019-04-26T12:34:21.989Z,97876.03
2019-04-26T12:36:53.729Z,97876.05
2019-04-26T12:39:25.644Z,97879.00
2019-04-26T12:41:57.532Z,97877.06
2019-04-26T12:44:36.461Z,97879.81
2019-04-26T12:47:13.884Z,97873.38
2019-04-26T12:49:45.683Z,97873.69
2019-04-26T12:52:21.556Z,97870.16
2019-04-26T12:54:51.875Z,97862.08
2019-04-26T12:57:23.782Z,97864.88
2019-04-26T12:59:57.670Z,97866.23
2019-04-26T13:02:29.510Z,97860.38
2019-04-26T13:05:01.357Z,97854.36
2019-04-26T13:07:33.361Z,97847.51
2019-04-26T13:10:23.886Z,97845.89
2019-04-26T13:13:14.335Z,97844.75
2019-04-26T13:16:21.635Z,97837.00
2019-04-26T13:18:55.401Z,97831.75
2019-04-26T13:21:27.281Z,97831.16
2019-04-26T13:24:00.199Z,97832.41
2019-04-26T13:26:34.763Z,97824.36
2019-04-26T13:29:08.100Z,97825.12
2019-04-26T13:31:39.850Z,97812.70
2019-04-26T13:34:14.543Z,97823.02
2019-04-26T13:36:46.786Z,97818.66
2019-04-26T13:39:22.555Z,97819.85
2019-04-26T13:42:02.999Z,97820.23
2019-04-26T13:44:48.984Z,97831.06
2019-04-26T13:47:45.014Z,97818.21
2019-04-26T13:50:26.683Z,97813.80
2019-04-26T13:52:59.485Z,97814.64
2019-04-26T13:55:33.628Z,97812.33
2019-04-26T13:58:04.620Z,97808.45
2019-04-26T14:00:39.747Z,97807.82
2019-04-26T14:03:10.820Z,97807.02
2019-04-26T14:05:42.629Z,97806.57
2019-04-26T14:08:17.653Z,97807.17
2019-04-26T14:10:51.232Z,97803.45
2019-04-26T14:13:24.912Z,97804.25
2019-04-26T14:15:57.748Z,97807.22
2019-04-26T14:18:29.964Z,97803.08
2019-04-26T14:21:02.846Z,97804.31
2019-04-26T14:24:09.274Z,97809.42
2019-04-26T14:26:43.955Z,97799.00
2019-04-26T14:29:15.800Z,97807.39
2019-04-26T14:31:51.369Z,97808.26
2019-04-26T14:34:23.662Z,97799.04
2019-04-26T14:37:05.821Z,97795.56
2019-04-26T14:39:38.221Z,97796.39
2019-04-26T14:42:02.994Z,97790.26
2019-04-26T14:44:34.627Z,97798.87
2019-04-26T14:47:13.875Z,97798.27
2019-04-26T14:49:42.916Z,97802.34
2019-04-26T14:52:13.443Z,97789.05
2019-04-26T14:54:46.039Z,97778.91
2019-04-26T14:57:25.805Z,97770.66
2019-04-26T14:59:57.815Z,97776.61
2019-04-26T15:02:57.438Z,97780.24
2019-04-26T15:05:46.426Z,97776.95
2019-04-26T15:08:23.731Z,97778.25
2019-04-26T15:11:00.912Z,97769.30
2019-04-26T15:13:29.705Z,97760.30
2019-04-26T15:16:03.957Z,97768.93
2019-04-26T15:18:37.077Z,97768.55
2019-04-26T15:21:09.225Z,97765.48
2019-04-26T15:23:41.152Z,97769.14
2019-04-26T15:26:14.291Z,97767.61
2019-04-26T15:28:50.206Z,97765.72
2019-04-26T15:31:21.499Z,97770.31
2019-04-26T15:33:53.183Z,97767.47
2019-04-26T15:36:25.650Z,97771.14
2019-04-26T15:38:58.055Z,97767.92
2019-04-26T15:41:43.101Z,97756.38
2019-04-26T15:44:28.396Z,97747.48
2019-04-26T15:47:06.015Z,97745.67
2019-04-26T15:49:45.958Z,97746.75
2019-04-26T15:52:17.629Z,97739.64
2019-04-26T15:54:53.004Z,97733.73
2019-04-26T15:57:24.376Z,97735.12
2019-04-26T15:59:58.125Z,97735.95
2019-04-26T16:02:32.103Z,97734.31
2019-04-26T16:05:04.073Z,97729.03
2019-04-26T16:07:36.803Z,97733.64
2019-04-26T16:10:12.250Z,97739.50
2019-04-26T16:12:44.068Z,97734.52
2019-04-26T16:15:16.997Z,97725.98
2019-04-26T16:17:49.844Z,97718.90
2019-04-26T16:20:22.221Z,97727.27
2019-04-26T16:22:54.738Z,97724.86
2019-04-26T16:25:26.468Z,97721.42
2019-04-26T16:28:15.479Z,97716.30
2019-04-26T16:30:59.665Z,97720.13
2019-04-26T16:33:34.610Z,97713.25
2019-04-26T16:36:07.400Z,97712.92
2019-04-26T16:38:39.343Z,97712.41
2019-04-26T16:41:11.249Z,97715.64
2019-04-26T16:43:50.961Z,97708.18
2019-04-26T16:46:20.728Z,97699.75
2019-04-26T16:48:49.956Z,97695.01
2019-04-26T16:51:25.217Z,97694.84
2019-04-26T16:56:35.650Z,97701.23
2019-04-26T16:59:04.728Z,97709.59
2019-04-26T17:00:33.600Z,97694.84
2019-04-26T17:01:38.230Z,97709.39
2019-04-26T17:04:11.432Z,97712.03
2019-04-26T17:06:44.913Z,97707.50
2019-04-26T17:09:18.763Z,97706.93
2019-04-26T17:11:52.245Z,97704.65
2019-04-26T17:14:24.590Z,97703.11
2019-04-26T17:16:56.392Z,97703.11
2019-04-26T17:19:29.773Z,97709.53
2019-04-26T17:22:41.851Z,97704.55
2019-04-26T17:25:32.103Z,97699.80
2019-04-26T17:28:03.989Z,97699.80
2019-04-26T17:30:41.315Z,97706.23
2019-04-26T17:33:09.136Z,97707.41
2019-04-26T17:35:42.047Z,97708.81
2019-04-26T17:38:13.750Z,97710.55
2019-04-26T17:40:46.304Z,97715.61
2019-04-26T17:43:18.137Z,97718.81
2019-04-26T17:45:52.311Z,97722.08
2019-04-26T17:48:24.085Z,97719.30
2019-04-26T17:50:55.716Z,97723.89
2019-04-26T17:53:31.292Z,97725.39
2019-04-26T17:56:02.434Z,97734.08
2019-04-26T17:58:43.080Z,97729.44
2019-04-26T18:01:07.714Z,97726.31
2019-04-26T18:03:50.797Z,97723.51
2019-04-26T18:06:13.992Z,97722.44
2019-04-26T18:08:54.677Z,97723.34
2019-04-26T18:11:24.859Z,97730.05
2019-04-26T18:13:56.277Z,97727.82
2019-04-26T18:16:29.643Z,97727.63
2019-04-26T18:19:30.383Z,97730.80
2019-04-26T18:22:20.768Z,97733.20
2019-04-26T18:24:52.604Z,97738.80
2019-04-26T18:27:24.374Z,97738.80
2019-04-26T18:29:59.775Z,97732.48
2019-04-26T18:32:41.812Z,97736.25
2019-04-26T18:35:09.245Z,97738.59
2019-04-26T18:37:42.596Z,97740.91
2019-04-26T18:40:14.717Z,97734.66
2019-04-26T18:42:46.478Z,97734.28
2019-04-26T18:45:25.627Z,97740.75
2019-04-26T18:47:54.846Z,97740.34
2019-04-26T18:50:28.472Z,97737.41
2019-04-26T18:53:19.681Z,97742.16
2019-04-26T18:55:53.453Z,97747.12
2019-04-26T18:58:25.239Z,97739.33
2019-04-26T19:00:57.380Z,97735.45
2019-04-26T19:03:31.102Z,97738.44
2019-04-26T19:06:05.561Z,97726.34
2019-04-26T19:08:45.545Z,97734.99
2019-04-26T19:11:11.665Z,97727.25
2019-04-26T19:13:56.454Z,97718.55
2019-04-26T19:16:46.342Z,97716.81
2019-04-26T19:19:46.073Z,97717.34
2019-04-26T19:22:20.367Z,97718.02
2019-04-26T19:24:54.184Z,97709.61
2019-04-26T19:27:26.642Z,97707.52
2019-04-26T19:29:58.385Z,97715.73
2019-04-26T19:32:35.185Z,97709.77
2019-04-26T19:35:07.644Z,97707.01
2019-04-26T19:37:38.518Z,97710.72
2019-04-26T19:40:12.274Z,97717.34
2019-04-26T19:42:43.999Z,97714.83
2019-04-26T19:45:48.009Z,97716.05
2019-04-26T19:48:31.489Z,97712.59
2019-04-26T19:51:34.096Z,97712.80
2019-04-26T19:54:17.464Z,97715.37
2019-04-26T19:57:12.164Z,97713.59
2019-04-26T19:59:43.931Z,97712.70
2019-04-26T20:02:15.908Z,97714.89
2019-04-26T20:04:51.251Z,97712.52
2019-04-26T20:07:28.342Z,97711.06
2019-04-26T20:10:02.371Z,97706.17
2019-04-26T20:12:35.140Z,97704.95
2019-04-26T20:15:05.245Z,97696.40
2019-04-26T20:17:37.035Z,97696.30
2019-04-26T20:20:19.032Z,97699.82
2019-04-26T20:22:42.298Z,97695.48
2019-04-26T20:25:14.931Z,97702.30
2019-04-26T20:27:46.807Z,97696.58
2019-04-26T20:30:57.982Z,97692.91
2019-04-26T20:33:31.243Z,97684.89
2019-04-26T20:36:04.913Z,97682.45
2019-04-26T20:38:45.464Z,97678.22
2019-04-26T20:41:14.760Z,97682.02
2019-04-26T20:43:52.343Z,97678.98
2019-04-26T20:46:18.117Z,97680.45
2019-04-26T20:48:51.500Z,97673.27
2019-04-26T20:51:24.142Z,97672.98
2019-04-26T20:53:56.274Z,97675.36
2019-04-26T20:56:28.005Z,97683.84
2019-04-26T20:59:01.473Z,97679.41
2019-04-26T21:01:33.420Z,97678.25
2019-04-26T21:04:06.272Z,97683.59
2019-04-26T21:06:38.001Z,97680.48
2019-04-26T21:09:12.698Z,97679.26
2019-04-26T21:11:44.540Z,97679.47
2019-04-26T21:14:17.313Z,97683.51
2019-04-26T21:16:50.403Z,97676.78
2019-04-26T21:19:22.191Z,97676.30
2019-04-26T21:21:53.970Z,97671.62
2019-04-26T21:24:27.402Z,97669.77
2019-04-26T21:27:25.975Z,97669.77
2019-04-26T21:30:15.838Z,97673.39
2019-04-26T21:32:59.246Z,97670.52
2019-04-26T21:35:36.895Z,97668.12
2019-04-26T21:38:14.240Z,97659.37
2019-04-26T21:41:04.377Z,97653.84
2019-04-26T21:43:36.942Z,97647.10
2019-04-26T21:46:10.348Z,97643.41
2019-04-26T21:48:41.894Z,97647.67
2019-04-26T21:51:16.253Z,97643.89
2019-04-26T21:53:48.175Z,97640.66
2019-04-26T21:56:19.771Z,97642.59
2019-04-26T21:58:52.907Z,97638.08
2019-04-26T22:01:25.309Z,97641.59
2019-04-26T22:03:58.433Z,97641.31
2019-04-26T22:06:30.758Z,97640.48
2019-04-26T22:09:10.033Z,97641.67
2019-04-26T22:11:56.504Z,97646.18
2019-04-26T22:14:33.989Z,97644.89
2019-04-26T22:17:10.603Z,97644.16
2019-04-26T22:20:06.673Z,97652.98
2019-04-26T22:22:56.728Z,97651.24
2019-04-26T22:25:30.707Z,97652.71
2019-04-26T22:28:03.383Z,97652.08
2019-04-26T22:30:37.650Z,97634.19
2019-04-26T22:33:09.468Z,97632.27
2019-04-26T22:35:41.245Z,97634.75
2019-04-26T22:38:17.488Z,97627.00
2019-04-26T22:40:54.683Z,97624.98
2019-04-26T22:43:38.389Z,97621.20
2019-04-26T22:46:49.593Z,97617.06
2019-04-26T22:49:23.136Z,97617.89
2019-04-26T22:51:55.004Z,97607.02
2019-04-26T22:54:26.728Z,97606.91
2019-04-26T22:56:58.402Z,97607.84
2019-04-26T22:59:30.167Z,97603.49
2019-04-26T23:02:03.509Z,97601.85
2019-04-26T23:04:35.624Z,97602.30
2019-04-26T23:07:08.633Z,97600.63
2019-04-26T23:09:40.459Z,97592.33
2019-04-26T23:12:34.184Z,97586.54
2019-04-26T23:15:30.396Z,97590.30
2019-04-26T23:18:15.928Z,97595.53
2019-04-26T23:21:12.006Z,97593.69
2019-04-26T23:23:44.284Z,97583.47
2019-04-26T23:26:16.021Z,97583.92
2019-04-26T23:28:47.595Z,97581.66
2019-04-26T23:31:19.287Z,97576.77
2019-04-26T23:33:51.086Z,97572.62
2019-04-26T23:36:24.107Z,97572.23
2019-04-26T23:38:55.866Z,97566.45
2019-04-26T23:41:28.281Z,97565.33
2019-04-26T23:44:03.102Z,97560.38
2019-04-26T23:46:35.613Z,97555.33
2019-04-26T23:49:07.482Z,97548.11
2019-04-26T23:51:43.086Z,97557.31
2019-04-26T23:54:13.753Z,97547.55
2019-04-26T23:56:45.396Z,97538.73
2019-04-26T23:59:20.707Z,97538.73
